sensor_id;sensor_type;location;lat;lon;timestamp;pressure;altitude;pressure_sealevel;temperature;humidity
38452;BME280;24231;52.514;13.438;2023-02-13T00:03:03;103234.10;;;10.89;68.63
38452;BME280;24231;52.514;13.438;2023-02-13T00:05:30;103230.35;;;10.54;68.77
38452;BME280;24231;52.514;13.438;2023-02-13T00:07:57;103231.27;;;10.12;71.36
38452;BME280;24231;52.514;13.438;2023-02-13T00:10:25;103233.50;;;9.52;70.02
38452;BME280;24231;52.514;13.438;2023-02-13T00:12:52;103229.57;;;11.15;66.13
38452;BME280;24231;52.514;13.438;2023-02-13T00:15:19;103239.24;;;10.64;67.38
38452;BME280;24231;52.514;13.438;2023-02-13T00:17:47;103238.87;;;10.64;68.03
38452;BME280;24231;52.514;13.438;2023-02-13T00:20:13;103236.67;;;10.09;70.03
38452;BME280;24231;52.514;13.438;2023-02-13T00:22:41;103235.86;;;10.34;68.63
38452;BME280;24231;52.514;13.438;2023-02-13T00:25:08;103235.20;;;10.79;66.48
38452;BME280;24231;52.514;13.438;2023-02-13T00:27:35;103232.79;;;10.41;67.43
38452;BME280;24231;52.514;13.438;2023-02-13T00:30:08;103233.71;;;10.52;65.53
38452;BME280;24231;52.514;13.438;2023-02-13T00:32:35;103233.40;;;9.95;68.72
38452;BME280;24231;52.514;13.438;2023-02-13T00:35:03;103231.05;;;10.56;65.50
38452;BME280;24231;52.514;13.438;2023-02-13T00:37:30;103227.35;;;11.16;63.31
38452;BME280;24231;52.514;13.438;2023-02-13T00:39:57;103224.23;;;11.48;61.64
38452;BME280;24231;52.514;13.438;2023-02-13T00:42:24;103233.85;;;10.09;66.83
38452;BME280;24231;52.514;13.438;2023-02-13T00:44:52;103230.73;;;11.20;62.40
38452;BME280;24231;52.514;13.438;2023-02-13T00:47:19;103237.22;;;10.55;64.48
38452;BME280;24231;52.514;13.438;2023-02-13T00:49:46;103229.80;;;10.19;65.55
38452;BME280;24231;52.514;13.438;2023-02-13T00:52:14;103232.00;;;10.05;66.11
38452;BME280;24231;52.514;13.438;2023-02-13T00:54:41;103225.15;;;9.30;68.00
38452;BME280;24231;52.514;13.438;2023-02-13T00:57:08;103225.03;;;9.92;66.71
38452;BME280;24231;52.514;13.438;2023-02-13T00:59:35;103225.65;;;10.19;65.45
38452;BME280;24231;52.514;13.438;2023-02-13T01:02:03;103228.38;;;9.87;66.24
38452;BME280;24231;52.514;13.438;2023-02-13T01:04:30;103229.71;;;10.24;64.85
38452;BME280;24231;52.514;13.438;2023-02-13T01:06:57;103231.59;;;10.35;64.63
38452;BME280;24231;52.514;13.438;2023-02-13T01:09:25;103232.90;;;10.04;65.02
38452;BME280;24231;52.514;13.438;2023-02-13T01:11:53;103234.73;;;10.11;65.15
38452;BME280;24231;52.514;13.438;2023-02-13T01:14:20;103235.81;;;8.96;68.55
38452;BME280;24231;52.514;13.438;2023-02-13T01:16:47;103232.76;;;9.77;64.65
38452;BME280;24231;52.514;13.438;2023-02-13T01:19:15;103235.61;;;9.36;66.20
38452;BME280;24231;52.514;13.438;2023-02-13T01:21:42;103234.37;;;9.00;67.36
38452;BME280;24231;52.514;13.438;2023-02-13T01:24:09;103232.53;;;9.66;64.18
38452;BME280;24231;52.514;13.438;2023-02-13T01:26:36;103231.35;;;9.33;66.37
38452;BME280;24231;52.514;13.438;2023-02-13T01:29:03;103231.93;;;8.89;66.47
38452;BME280;24231;52.514;13.438;2023-02-13T01:31:30;103228.35;;;10.15;62.57
38452;BME280;24231;52.514;13.438;2023-02-13T01:33:58;103230.86;;;9.84;63.93
38452;BME280;24231;52.514;13.438;2023-02-13T01:36:26;103230.12;;;9.53;65.60
38452;BME280;24231;52.514;13.438;2023-02-13T01:38:54;103230.33;;;10.54;61.80
38452;BME280;24231;52.514;13.438;2023-02-13T01:41:22;103224.25;;;9.74;64.16
38452;BME280;24231;52.514;13.438;2023-02-13T01:43:52;103224.86;;;9.81;64.59
38452;BME280;24231;52.514;13.438;2023-02-13T01:46:26;103225.74;;;10.24;62.79
38452;BME280;24231;52.514;13.438;2023-02-13T01:48:59;103223.47;;;10.00;63.04
38452;BME280;24231;52.514;13.438;2023-02-13T01:51:30;103222.67;;;9.92;63.25
38452;BME280;24231;52.514;13.438;2023-02-13T01:55:05;103224.09;;;9.75;64.43
38452;BME280;24231;52.514;13.438;2023-02-13T01:57:33;103227.79;;;9.81;63.82
38452;BME280;24231;52.514;13.438;2023-02-13T02:00:04;103225.85;;;9.93;63.73
38452;BME280;24231;52.514;13.438;2023-02-13T02:02:36;103225.17;;;10.29;62.63
38452;BME280;24231;52.514;13.438;2023-02-13T02:05:05;103222.54;;;10.26;61.88
38452;BME280;24231;52.514;13.438;2023-02-13T02:07:37;103219.32;;;10.28;62.48
38452;BME280;24231;52.514;13.438;2023-02-13T02:10:08;103222.40;;;9.85;63.22
38452;BME280;24231;52.514;13.438;2023-02-13T02:12:41;103225.47;;;10.43;61.75
38452;BME280;24231;52.514;13.438;2023-02-13T02:15:10;103224.53;;;9.54;64.51
38452;BME280;24231;52.514;13.438;2023-02-13T02:17:38;103227.05;;;8.89;66.77
38452;BME280;24231;52.514;13.438;2023-02-13T02:20:16;103226.35;;;9.76;64.60
38452;BME280;24231;52.514;13.438;2023-02-13T02:23:19;103226.05;;;10.19;62.34
38452;BME280;24231;52.514;13.438;2023-02-13T02:28:47;103227.62;;;10.66;61.25
38452;BME280;24231;52.514;13.438;2023-02-13T02:31:40;103232.68;;;9.93;63.25
38452;BME280;24231;52.514;13.438;2023-02-13T02:34:15;103235.30;;;10.52;61.90
38452;BME280;24231;52.514;13.438;2023-02-13T02:36:57;103230.72;;;10.13;62.17
38452;BME280;24231;52.514;13.438;2023-02-13T02:39:38;103236.87;;;9.22;65.62
38452;BME280;24231;52.514;13.438;2023-02-13T02:42:18;103236.68;;;9.96;63.97
38452;BME280;24231;52.514;13.438;2023-02-13T02:44:54;103236.25;;;10.44;61.72
38452;BME280;24231;52.514;13.438;2023-02-13T02:47:25;103235.44;;;10.03;63.17
38452;BME280;24231;52.514;13.438;2023-02-13T02:50:10;103234.66;;;9.96;63.63
38452;BME280;24231;52.514;13.438;2023-02-13T02:52:52;103234.85;;;9.58;64.74
38452;BME280;24231;52.514;13.438;2023-02-13T02:55:31;103239.10;;;8.69;67.89
38452;BME280;24231;52.514;13.438;2023-02-13T02:58:07;103238.69;;;10.40;62.61
38452;BME280;24231;52.514;13.438;2023-02-13T03:00:38;103229.97;;;11.35;59.11
38452;BME280;24231;52.514;13.438;2023-02-13T03:03:12;103238.43;;;10.68;61.39
38452;BME280;24231;52.514;13.438;2023-02-13T03:05:43;103233.83;;;11.05;60.17
38452;BME280;24231;52.514;13.438;2023-02-13T03:08:13;103238.49;;;10.29;62.18
38452;BME280;24231;52.514;13.438;2023-02-13T03:10:41;103237.56;;;10.21;62.46
38452;BME280;24231;52.514;13.438;2023-02-13T03:13:13;103240.68;;;10.42;62.24
38452;BME280;24231;52.514;13.438;2023-02-13T03:15:44;103242.52;;;9.30;66.27
38452;BME280;24231;52.514;13.438;2023-02-13T03:18:11;103233.10;;;9.97;64.87
38452;BME280;24231;52.514;13.438;2023-02-13T03:20:44;103241.21;;;10.48;62.66
38452;BME280;24231;52.514;13.438;2023-02-13T03:23:14;103236.98;;;9.94;64.63
38452;BME280;24231;52.514;13.438;2023-02-13T03:25:55;103239.44;;;10.60;62.74
38452;BME280;24231;52.514;13.438;2023-02-13T03:28:29;103242.28;;;10.15;63.37
38452;BME280;24231;52.514;13.438;2023-02-13T03:31:07;103240.93;;;10.87;61.37
38452;BME280;24231;52.514;13.438;2023-02-13T03:33:50;103240.37;;;10.47;62.96
38452;BME280;24231;52.514;13.438;2023-02-13T03:36:30;103241.01;;;10.49;62.38
38452;BME280;24231;52.514;13.438;2023-02-13T03:39:07;103239.99;;;10.83;61.04
38452;BME280;24231;52.514;13.438;2023-02-13T03:41:37;103241.03;;;10.53;61.45
38452;BME280;24231;52.514;13.438;2023-02-13T03:44:12;103237.59;;;10.83;60.42
38452;BME280;24231;52.514;13.438;2023-02-13T03:46:41;103235.19;;;10.83;60.64
38452;BME280;24231;52.514;13.438;2023-02-13T03:49:14;103225.66;;;11.11;59.21
38452;BME280;24231;52.514;13.438;2023-02-13T03:51:49;103232.48;;;10.81;60.46
38452;BME280;24231;52.514;13.438;2023-02-13T03:54:22;103229.15;;;10.02;62.96
38452;BME280;24231;52.514;13.438;2023-02-13T03:56:49;103230.82;;;9.94;63.11
38452;BME280;24231;52.514;13.438;2023-02-13T03:59:22;103227.94;;;10.15;62.36
38452;BME280;24231;52.514;13.438;2023-02-13T04:01:58;103227.24;;;9.38;65.01
38452;BME280;24231;52.514;13.438;2023-02-13T04:04:33;103231.28;;;10.71;59.52
38452;BME280;24231;52.514;13.438;2023-02-13T04:07:06;103227.11;;;9.22;66.39
38452;BME280;24231;52.514;13.438;2023-02-13T04:09:37;103223.97;;;10.34;61.14
38452;BME280;24231;52.514;13.438;2023-02-13T04:12:13;103218.48;;;10.34;61.20
38452;BME280;24231;52.514;13.438;2023-02-13T04:14:48;103217.87;;;10.23;61.66
38452;BME280;24231;52.514;13.438;2023-02-13T04:17:20;103218.69;;;10.56;60.29
38452;BME280;24231;52.514;13.438;2023-02-13T04:19:48;103217.04;;;10.79;58.88
38452;BME280;24231;52.514;13.438;2023-02-13T04:22:16;103211.70;;;9.33;63.62
38452;BME280;24231;52.514;13.438;2023-02-13T04:24:42;103212.01;;;9.79;62.00
38452;BME280;24231;52.514;13.438;2023-02-13T04:27:12;103221.55;;;9.12;63.31
38452;BME280;24231;52.514;13.438;2023-02-13T04:29:40;103222.45;;;10.03;61.49
38452;BME280;24231;52.514;13.438;2023-02-13T04:32:08;103222.32;;;9.43;64.17
38452;BME280;24231;52.514;13.438;2023-02-13T04:34:36;103219.56;;;9.88;62.00
38452;BME280;24231;52.514;13.438;2023-02-13T04:37:03;103217.83;;;10.48;59.55
38452;BME280;24231;52.514;13.438;2023-02-13T04:39:31;103212.45;;;9.52;62.69
38452;BME280;24231;52.514;13.438;2023-02-13T04:41:58;103207.17;;;9.50;62.48
38452;BME280;24231;52.514;13.438;2023-02-13T04:44:25;103208.32;;;10.52;58.51
38452;BME280;24231;52.514;13.438;2023-02-13T04:46:52;103202.20;;;10.84;57.07
38452;BME280;24231;52.514;13.438;2023-02-13T04:49:19;103197.84;;;9.47;61.15
38452;BME280;24231;52.514;13.438;2023-02-13T04:51:47;103195.70;;;9.35;61.64
38452;BME280;24231;52.514;13.438;2023-02-13T04:54:14;103197.44;;;9.41;62.68
38452;BME280;24231;52.514;13.438;2023-02-13T04:56:41;103201.64;;;9.94;60.73
38452;BME280;24231;52.514;13.438;2023-02-13T04:59:09;103198.04;;;9.77;61.83
38452;BME280;24231;52.514;13.438;2023-02-13T05:01:35;103201.94;;;10.28;58.97
38452;BME280;24231;52.514;13.438;2023-02-13T05:04:03;103203.95;;;10.74;57.44
38452;BME280;24231;52.514;13.438;2023-02-13T05:06:30;103206.34;;;10.46;57.74
38452;BME280;24231;52.514;13.438;2023-02-13T05:08:58;103205.69;;;9.46;60.79
38452;BME280;24231;52.514;13.438;2023-02-13T05:11:25;103212.67;;;8.67;65.27
38452;BME280;24231;52.514;13.438;2023-02-13T05:13:52;103209.58;;;10.01;59.62
38452;BME280;24231;52.514;13.438;2023-02-13T05:16:19;103209.18;;;9.68;60.67
38452;BME280;24231;52.514;13.438;2023-02-13T05:18:45;103214.44;;;10.06;59.69
38452;BME280;24231;52.514;13.438;2023-02-13T05:21:12;103212.33;;;9.62;61.05
38452;BME280;24231;52.514;13.438;2023-02-13T05:23:40;103219.09;;;8.63;65.17
38452;BME280;24231;52.514;13.438;2023-02-13T05:26:07;103215.51;;;8.78;64.64
38452;BME280;24231;52.514;13.438;2023-02-13T05:28:34;103215.13;;;10.06;59.41
38452;BME280;24231;52.514;13.438;2023-02-13T05:31:01;103212.88;;;9.87;59.75
38452;BME280;24231;52.514;13.438;2023-02-13T05:33:28;103214.48;;;10.05;59.49
38452;BME280;24231;52.514;13.438;2023-02-13T05:35:55;103210.98;;;9.68;60.05
38452;BME280;24231;52.514;13.438;2023-02-13T05:38:23;103211.76;;;9.65;59.80
38452;BME280;24231;52.514;13.438;2023-02-13T05:40:50;103214.69;;;10.12;58.50
38452;BME280;24231;52.514;13.438;2023-02-13T05:43:18;103214.30;;;8.79;62.58
38452;BME280;24231;52.514;13.438;2023-02-13T05:45:45;103212.23;;;10.42;57.99
38452;BME280;24231;52.514;13.438;2023-02-13T05:48:13;103213.26;;;8.84;62.85
38452;BME280;24231;52.514;13.438;2023-02-13T05:50:40;103217.76;;;10.19;58.69
38452;BME280;24231;52.514;13.438;2023-02-13T05:53:07;103222.08;;;10.58;56.86
38452;BME280;24231;52.514;13.438;2023-02-13T05:55:34;103222.43;;;10.30;57.70
38452;BME280;24231;52.514;13.438;2023-02-13T05:58:02;103226.46;;;10.02;58.50
38452;BME280;24231;52.514;13.438;2023-02-13T06:00:29;103228.00;;;9.71;59.34
38452;BME280;24231;52.514;13.438;2023-02-13T06:02:57;103234.85;;;8.22;63.53
38452;BME280;24231;52.514;13.438;2023-02-13T06:05:24;103237.41;;;9.17;61.79
38452;BME280;24231;52.514;13.438;2023-02-13T06:07:52;103233.27;;;8.99;61.42
38452;BME280;24231;52.514;13.438;2023-02-13T06:10:19;103237.52;;;9.95;58.34
38452;BME280;24231;52.514;13.438;2023-02-13T06:12:46;103237.63;;;9.59;59.20
38452;BME280;24231;52.514;13.438;2023-02-13T06:15:13;103238.21;;;10.07;57.99
38452;BME280;24231;52.514;13.438;2023-02-13T06:17:39;103241.33;;;10.82;55.43
38452;BME280;24231;52.514;13.438;2023-02-13T06:20:08;103240.13;;;11.09;53.93
38452;BME280;24231;52.514;13.438;2023-02-13T06:22:35;103241.05;;;11.05;53.71
38452;BME280;24231;52.514;13.438;2023-02-13T06:25:04;103238.96;;;9.72;57.02
38452;BME280;24231;52.514;13.438;2023-02-13T06:27:31;103239.07;;;9.65;57.28
38452;BME280;24231;52.514;13.438;2023-02-13T06:29:58;103241.49;;;10.42;55.07
38452;BME280;24231;52.514;13.438;2023-02-13T06:32:26;103236.67;;;11.10;52.95
38452;BME280;24231;52.514;13.438;2023-02-13T06:34:53;103240.74;;;10.29;55.32
38452;BME280;24231;52.514;13.438;2023-02-13T06:37:21;103242.45;;;10.28;55.24
38452;BME280;24231;52.514;13.438;2023-02-13T06:39:48;103238.89;;;11.11;52.43
38452;BME280;24231;52.514;13.438;2023-02-13T06:42:15;103244.03;;;10.26;54.90
38452;BME280;24231;52.514;13.438;2023-02-13T06:44:43;103240.77;;;11.26;52.33
38452;BME280;24231;52.514;13.438;2023-02-13T06:47:10;103245.77;;;11.12;52.16
38452;BME280;24231;52.514;13.438;2023-02-13T06:49:37;103248.74;;;11.82;50.25
38452;BME280;24231;52.514;13.438;2023-02-13T06:52:04;103249.63;;;11.62;50.57
38452;BME280;24231;52.514;13.438;2023-02-13T06:54:31;103254.22;;;11.24;51.70
38452;BME280;24231;52.514;13.438;2023-02-13T06:56:59;103257.54;;;11.42;51.12
38452;BME280;24231;52.514;13.438;2023-02-13T06:59:25;103265.56;;;9.82;55.70
38452;BME280;24231;52.514;13.438;2023-02-13T07:01:53;103269.31;;;8.69;59.68
38452;BME280;24231;52.514;13.438;2023-02-13T07:04:20;103271.85;;;10.45;54.08
38452;BME280;24231;52.514;13.438;2023-02-13T07:06:48;103264.35;;;10.35;54.25
38452;BME280;24231;52.514;13.438;2023-02-13T07:09:15;103265.62;;;9.44;56.26
38452;BME280;24231;52.514;13.438;2023-02-13T07:11:42;103272.42;;;9.33;57.93
38452;BME280;24231;52.514;13.438;2023-02-13T07:14:10;103271.03;;;10.52;52.70
38452;BME280;24231;52.514;13.438;2023-02-13T07:16:38;103273.89;;;11.05;52.61
38452;BME280;24231;52.514;13.438;2023-02-13T07:19:05;103270.76;;;9.53;56.76
38452;BME280;24231;52.514;13.438;2023-02-13T07:21:37;103269.73;;;10.07;55.09
38452;BME280;24231;52.514;13.438;2023-02-13T07:24:05;103273.60;;;10.49;54.12
38452;BME280;24231;52.514;13.438;2023-02-13T07:26:32;103275.28;;;10.72;53.33
38452;BME280;24231;52.514;13.438;2023-02-13T07:29:00;103277.74;;;10.53;53.87
38452;BME280;24231;52.514;13.438;2023-02-13T07:31:27;103278.16;;;10.84;53.46
38452;BME280;24231;52.514;13.438;2023-02-13T07:33:54;103278.99;;;11.17;52.13
38452;BME280;24231;52.514;13.438;2023-02-13T07:36:20;103277.85;;;9.69;56.78
38452;BME280;24231;52.514;13.438;2023-02-13T07:38:47;103282.21;;;8.54;60.33
38452;BME280;24231;52.514;13.438;2023-02-13T07:41:15;103280.36;;;9.47;58.42
38452;BME280;24231;52.514;13.438;2023-02-13T07:43:42;103281.69;;;9.43;57.55
38452;BME280;24231;52.514;13.438;2023-02-13T07:46:09;103287.35;;;8.43;61.67
38452;BME280;24231;52.514;13.438;2023-02-13T07:48:36;103287.69;;;10.51;55.52
38452;BME280;24231;52.514;13.438;2023-02-13T07:51:04;103285.70;;;10.87;54.35
38452;BME280;24231;52.514;13.438;2023-02-13T07:53:31;103286.39;;;9.73;56.67
38452;BME280;24231;52.514;13.438;2023-02-13T07:55:59;103286.33;;;10.07;57.04
38452;BME280;24231;52.514;13.438;2023-02-13T07:58:31;103286.43;;;9.85;57.50
38452;BME280;24231;52.514;13.438;2023-02-13T08:01:05;103288.55;;;10.54;55.44
38452;BME280;24231;52.514;13.438;2023-02-13T08:03:32;103287.93;;;10.65;55.21
38452;BME280;24231;52.514;13.438;2023-02-13T08:05:59;103288.74;;;11.19;53.57
38452;BME280;24231;52.514;13.438;2023-02-13T08:08:26;103290.15;;;11.25;53.36
38452;BME280;24231;52.514;13.438;2023-02-13T08:10:54;103296.14;;;11.28;53.01
38452;BME280;24231;52.514;13.438;2023-02-13T08:13:21;103295.47;;;10.02;56.30
38452;BME280;24231;52.514;13.438;2023-02-13T08:15:48;103296.50;;;11.29;53.23
38452;BME280;24231;52.514;13.438;2023-02-13T08:18:15;103290.37;;;11.52;52.44
38452;BME280;24231;52.514;13.438;2023-02-13T08:20:42;103296.82;;;9.37;58.73
38452;BME280;24231;52.514;13.438;2023-02-13T08:23:10;103287.83;;;10.01;57.70
38452;BME280;24231;52.514;13.438;2023-02-13T08:25:37;103288.40;;;10.84;55.03
38452;BME280;24231;52.514;13.438;2023-02-13T08:28:05;103289.48;;;10.70;55.30
38452;BME280;24231;52.514;13.438;2023-02-13T08:30:32;103291.88;;;9.10;60.33
38452;BME280;24231;52.514;13.438;2023-02-13T08:32:59;103292.55;;;10.69;55.65
38452;BME280;24231;52.514;13.438;2023-02-13T08:35:27;103292.79;;;10.56;56.30
38452;BME280;24231;52.514;13.438;2023-02-13T08:37:53;103292.62;;;10.81;55.46
38452;BME280;24231;52.514;13.438;2023-02-13T08:40:21;103294.46;;;10.33;56.47
38452;BME280;24231;52.514;13.438;2023-02-13T08:42:48;103290.01;;;11.19;54.19
38452;BME280;24231;52.514;13.438;2023-02-13T08:45:16;103283.65;;;11.53;52.97
38452;BME280;24231;52.514;13.438;2023-02-13T08:47:43;103292.16;;;10.34;56.78
38452;BME280;24231;52.514;13.438;2023-02-13T08:50:10;103295.56;;;11.30;54.17
38452;BME280;24231;52.514;13.438;2023-02-13T08:52:37;103292.03;;;10.80;55.37
38452;BME280;24231;52.514;13.438;2023-02-13T08:55:05;103286.69;;;10.04;58.43
38452;BME280;24231;52.514;13.438;2023-02-13T08:57:32;103287.53;;;9.55;60.32
38452;BME280;24231;52.514;13.438;2023-02-13T09:00:00;103286.30;;;10.19;57.95
38452;BME280;24231;52.514;13.438;2023-02-13T09:02:27;103287.30;;;10.27;57.56
38452;BME280;24231;52.514;13.438;2023-02-13T09:04:54;103292.89;;;7.82;65.32
38452;BME280;24231;52.514;13.438;2023-02-13T09:07:22;103292.00;;;9.88;59.53
38452;BME280;24231;52.514;13.438;2023-02-13T09:09:49;103293.80;;;8.62;63.17
38452;BME280;24231;52.514;13.438;2023-02-13T09:12:16;103289.08;;;10.26;58.63
38452;BME280;24231;52.514;13.438;2023-02-13T09:14:48;103295.49;;;8.93;62.26
38452;BME280;24231;52.514;13.438;2023-02-13T09:17:15;103292.98;;;9.82;60.37
38452;BME280;24231;52.514;13.438;2023-02-13T09:19:43;103296.36;;;9.68;61.40
38452;BME280;24231;52.514;13.438;2023-02-13T09:22:10;103297.11;;;9.71;61.58
38452;BME280;24231;52.514;13.438;2023-02-13T09:24:37;103302.79;;;9.31;62.81
38452;BME280;24231;52.514;13.438;2023-02-13T09:27:04;103303.78;;;9.30;62.40
38452;BME280;24231;52.514;13.438;2023-02-13T09:29:31;103305.48;;;10.59;58.14
38452;BME280;24231;52.514;13.438;2023-02-13T09:31:58;103312.47;;;8.83;64.58
38452;BME280;24231;52.514;13.438;2023-02-13T09:34:25;103309.41;;;9.82;61.71
38452;BME280;24231;52.514;13.438;2023-02-13T09:36:53;103312.31;;;10.60;59.24
38452;BME280;24231;52.514;13.438;2023-02-13T09:39:21;103314.36;;;9.38;62.90
38452;BME280;24231;52.514;13.438;2023-02-13T09:41:49;103308.52;;;10.12;61.62
38452;BME280;24231;52.514;13.438;2023-02-13T09:44:21;103319.85;;;8.71;67.01
38452;BME280;24231;52.514;13.438;2023-02-13T09:46:49;103321.73;;;9.76;64.62
38452;BME280;24231;52.514;13.438;2023-02-13T09:49:19;103319.66;;;9.81;64.36
38452;BME280;24231;52.514;13.438;2023-02-13T09:51:55;103318.42;;;9.46;66.79
38452;BME280;24231;52.514;13.438;2023-02-13T09:54:22;103310.99;;;9.79;66.39
38452;BME280;24231;52.514;13.438;2023-02-13T09:56:54;103310.03;;;8.78;69.32
38452;BME280;24231;52.514;13.438;2023-02-13T09:59:33;103304.54;;;9.92;66.59
38452;BME280;24231;52.514;13.438;2023-02-13T10:02:18;103303.67;;;10.31;64.86
38452;BME280;24231;52.514;13.438;2023-02-13T10:05:33;103303.69;;;10.23;65.72
38452;BME280;24231;52.514;13.438;2023-02-13T10:08:11;103305.10;;;10.13;64.99
38452;BME280;24231;52.514;13.438;2023-02-13T10:10:50;103312.10;;;10.73;64.37
38452;BME280;24231;52.514;13.438;2023-02-13T10:13:29;103310.36;;;10.50;64.49
38452;BME280;24231;52.514;13.438;2023-02-13T10:16:06;103313.31;;;10.49;65.12
38452;BME280;24231;52.514;13.438;2023-02-13T10:18:46;103308.97;;;9.74;68.04
38452;BME280;24231;52.514;13.438;2023-02-13T10:21:19;103309.15;;;8.54;73.52
38452;BME280;24231;52.514;13.438;2023-02-13T10:23:50;103305.21;;;9.54;70.29
38452;BME280;24231;52.514;13.438;2023-02-13T10:26:21;103302.49;;;10.05;67.97
38452;BME280;24231;52.514;13.438;2023-02-13T10:28:56;103304.81;;;10.38;66.32
38452;BME280;24231;52.514;13.438;2023-02-13T10:31:25;103305.84;;;10.37;65.88
38452;BME280;24231;52.514;13.438;2023-02-13T10:33:57;103305.62;;;10.35;65.05
38452;BME280;24231;52.514;13.438;2023-02-13T10:36:27;103304.96;;;9.31;68.55
38452;BME280;24231;52.514;13.438;2023-02-13T10:39:00;103303.67;;;10.06;67.08
38452;BME280;24231;52.514;13.438;2023-02-13T10:41:39;103301.97;;;10.50;65.55
38452;BME280;24231;52.514;13.438;2023-02-13T10:44:22;103298.93;;;9.90;67.41
38452;BME280;24231;52.514;13.438;2023-02-13T10:47:01;103298.42;;;10.46;66.35
38452;BME280;24231;52.514;13.438;2023-02-13T10:49:45;103293.96;;;9.80;67.09
38452;BME280;24231;52.514;13.438;2023-02-13T10:52:23;103292.81;;;10.79;64.25
38452;BME280;24231;52.514;13.438;2023-02-13T10:55:07;103290.38;;;9.05;71.10
38452;BME280;24231;52.514;13.438;2023-02-13T10:57:52;103284.83;;;9.10;71.07
38452;BME280;24231;52.514;13.438;2023-02-13T11:00:28;103275.08;;;10.28;66.89
38452;BME280;24231;52.514;13.438;2023-02-13T11:02:58;103280.58;;;8.93;71.02
38452;BME280;24231;52.514;13.438;2023-02-13T11:05:30;103276.25;;;9.72;67.76
38452;BME280;24231;52.514;13.438;2023-02-13T11:07:58;103280.86;;;8.96;70.47
38452;BME280;24231;52.514;13.438;2023-02-13T11:10:26;103276.96;;;10.61;64.71
38452;BME280;24231;52.514;13.438;2023-02-13T11:12:54;103277.30;;;10.42;64.97
38452;BME280;24231;52.514;13.438;2023-02-13T11:15:25;103274.64;;;10.42;64.69
38452;BME280;24231;52.514;13.438;2023-02-13T11:17:54;103273.63;;;9.21;69.34
38452;BME280;24231;52.514;13.438;2023-02-13T11:20:28;103266.04;;;9.87;67.35
38452;BME280;24231;52.514;13.438;2023-02-13T11:23:16;103270.04;;;9.65;67.36
38452;BME280;24231;52.514;13.438;2023-02-13T11:25:55;103272.93;;;9.06;68.79
38452;BME280;24231;52.514;13.438;2023-02-13T11:28:22;103268.19;;;9.55;66.86
38452;BME280;24231;52.514;13.438;2023-02-13T11:30:50;103267.37;;;9.63;66.61
38452;BME280;24231;52.514;13.438;2023-02-13T11:33:23;103261.76;;;9.40;67.88
38452;BME280;24231;52.514;13.438;2023-02-13T11:36:04;103260.05;;;9.44;67.51
38452;BME280;24231;52.514;13.438;2023-02-13T11:38:31;103258.65;;;9.97;65.71
38452;BME280;24231;52.514;13.438;2023-02-13T11:41:09;103260.57;;;10.65;64.38
38452;BME280;24231;52.514;13.438;2023-02-13T11:43:42;103263.37;;;10.53;62.07
38452;BME280;24231;52.514;13.438;2023-02-13T11:46:16;103261.38;;;11.12;60.14
38452;BME280;24231;52.514;13.438;2023-02-13T11:48:57;103256.30;;;11.46;58.52
38452;BME280;24231;52.514;13.438;2023-02-13T11:51:44;103255.99;;;10.38;62.04
38452;BME280;24231;52.514;13.438;2023-02-13T11:54:44;103250.70;;;9.33;65.39
38452;BME280;24231;52.514;13.438;2023-02-13T11:57:19;103254.15;;;10.71;60.86
38452;BME280;24231;52.514;13.438;2023-02-13T11:59:49;103246.95;;;10.37;61.23
38452;BME280;24231;52.514;13.438;2023-02-13T12:02:19;103243.66;;;10.42;61.82
38452;BME280;24231;52.514;13.438;2023-02-13T12:04:53;103240.71;;;10.87;59.50
38452;BME280;24231;52.514;13.438;2023-02-13T12:07:24;103236.46;;;10.81;59.67
38452;BME280;24231;52.514;13.438;2023-02-13T12:09:56;103234.44;;;11.51;57.52
38452;BME280;24231;52.514;13.438;2023-02-13T12:12:31;103235.52;;;11.35;57.81
38452;BME280;24231;52.514;13.438;2023-02-13T12:15:17;103242.05;;;10.66;59.80
38452;BME280;24231;52.514;13.438;2023-02-13T12:17:46;103244.94;;;9.77;63.29
38452;BME280;24231;52.514;13.438;2023-02-13T12:20:16;103245.08;;;11.03;58.53
38452;BME280;24231;52.514;13.438;2023-02-13T12:22:55;103239.17;;;11.25;57.33
38452;BME280;24231;52.514;13.438;2023-02-13T12:25:41;103243.39;;;10.72;59.44
38452;BME280;24231;52.514;13.438;2023-02-13T12:28:13;103246.34;;;10.52;58.98
38452;BME280;24231;52.514;13.438;2023-02-13T12:31:00;103244.06;;;10.53;59.21
38452;BME280;24231;52.514;13.438;2023-02-13T12:34:16;103241.74;;;9.54;61.95
38452;BME280;24231;52.514;13.438;2023-02-13T12:37:01;103241.04;;;9.56;61.87
38452;BME280;24231;52.514;13.438;2023-02-13T12:39:33;103242.51;;;9.83;60.93
38452;BME280;24231;52.514;13.438;2023-02-13T12:42:14;103244.12;;;9.38;61.84
38452;BME280;24231;52.514;13.438;2023-02-13T12:44:55;103253.03;;;10.33;59.61
38452;BME280;24231;52.514;13.438;2023-02-13T12:47:28;103246.78;;;9.48;62.48
38452;BME280;24231;52.514;13.438;2023-02-13T12:50:08;103248.73;;;10.20;60.06
38452;BME280;24231;52.514;13.438;2023-02-13T12:52:57;103246.99;;;9.45;61.69
38452;BME280;24231;52.514;13.438;2023-02-13T12:56:51;103244.71;;;8.36;66.44
38452;BME280;24231;52.514;13.438;2023-02-13T12:59:30;103239.77;;;8.93;64.73
38452;BME280;24231;52.514;13.438;2023-02-13T13:02:57;103235.03;;;9.94;61.00
38452;BME280;24231;52.514;13.438;2023-02-13T13:05:43;103234.27;;;9.69;61.57
38452;BME280;24231;52.514;13.438;2023-02-13T13:08:30;103240.08;;;9.42;62.92
38452;BME280;24231;52.514;13.438;2023-02-13T13:11:11;103234.81;;;9.73;61.40
38452;BME280;24231;52.514;13.438;2023-02-13T13:13:51;103232.03;;;10.08;59.97